createdAt,value
2022-11-21T00:00:39.960Z,2.85
2022-11-21T00:03:25.192Z,2.67
2022-11-21T00:06:10.744Z,2.85
2022-11-21T00:08:56.685Z,2.80
2022-11-21T00:11:42.001Z,2.40
2022-11-21T00:14:27.756Z,3.45
2022-11-21T00:17:14.616Z,2.45
2022-11-21T00:20:00.072Z,2.50
2022-11-21T00:22:45.721Z,3.60
2022-11-21T00:25:31.570Z,2.65
2022-11-21T00:28:17.023Z,2.92
2022-11-21T00:31:03.167Z,2.40
2022-11-21T00:33:48.441Z,2.25
2022-11-21T00:36:33.808Z,1.98
2022-11-21T00:39:19.442Z,2.15
2022-11-21T00:42:05.145Z,2.33
2022-11-21T00:44:50.628Z,3.05
2022-11-21T00:47:36.202Z,2.35
2022-11-21T00:50:21.830Z,3.28
2022-11-21T00:53:07.194Z,2.40
2022-11-21T00:55:52.818Z,2.63
2022-11-21T00:58:38.379Z,2.13
2022-11-21T01:01:23.881Z,2.83
2022-11-21T01:04:09.482Z,2.67
2022-11-21T01:06:54.740Z,2.72
2022-11-21T01:09:40.355Z,5.10
2022-11-21T01:12:26.232Z,3.53
2022-11-21T01:15:11.840Z,2.15
2022-11-21T01:17:57.166Z,2.33
2022-11-21T01:20:43.018Z,2.58
2022-11-21T01:23:29.431Z,2.50
2022-11-21T01:26:17.892Z,2.13
2022-11-21T01:29:03.129Z,2.38
2022-11-21T01:31:49.922Z,2.47
2022-11-21T01:34:35.033Z,2.35
2022-11-21T01:37:20.651Z,2.28
2022-11-21T01:40:06.398Z,3.28
2022-11-21T01:43:00.126Z,2.72
2022-11-21T01:45:51.555Z,2.58
2022-11-21T01:49:01.904Z,2.40
2022-11-21T01:52:06.842Z,2.90
2022-11-21T01:54:56.710Z,2.60
2022-11-21T01:57:48.487Z,2.08
2022-11-21T02:00:39.112Z,2.30
2022-11-21T02:03:29.224Z,3.33
2022-11-21T02:06:14.508Z,2.78
2022-11-21T02:09:01.512Z,2.97
2022-11-21T02:11:55.555Z,4.30
2022-11-21T02:14:43.784Z,2.22
2022-11-21T02:17:33.053Z,4.00
2022-11-21T02:20:21.036Z,2.28
2022-11-21T02:23:41.771Z,3.03
2022-11-21T02:26:27.119Z,2.15
2022-11-21T02:29:12.526Z,2.72
2022-11-21T02:32:05.377Z,2.70
2022-11-21T02:34:50.896Z,2.57
2022-11-21T02:37:37.287Z,2.65
2022-11-21T02:40:28.776Z,2.47
2022-11-21T02:43:23.284Z,2.50
2022-11-21T02:46:08.577Z,3.10
2022-11-21T02:48:56.706Z,2.83
2022-11-21T02:51:42.100Z,3.20
2022-11-21T02:54:27.787Z,3.15
2022-11-21T02:57:13.718Z,3.67
2022-11-21T02:59:59.183Z,2.42
2022-11-21T03:02:44.992Z,2.28
2022-11-21T03:05:30.398Z,3.55
2022-11-21T03:08:16.284Z,2.55
2022-11-21T03:11:01.487Z,2.45
2022-11-21T03:13:46.898Z,2.72
2022-11-21T03:16:32.288Z,2.70
2022-11-21T03:19:17.827Z,2.78
2022-11-21T03:22:03.769Z,2.42
2022-11-21T03:24:49.105Z,2.67
2022-11-21T03:27:34.529Z,2.42
2022-11-21T03:30:24.679Z,2.15
2022-11-21T03:33:10.197Z,3.85
2022-11-21T03:35:55.574Z,2.40
2022-11-21T03:38:41.180Z,2.92
2022-11-21T03:41:29.988Z,3.03
2022-11-21T03:44:15.133Z,2.22
2022-11-21T03:47:00.683Z,2.20
2022-11-21T03:49:46.190Z,2.70
2022-11-21T03:52:31.737Z,3.35
2022-11-21T03:55:17.452Z,2.35
2022-11-21T03:58:03.051Z,3.10
2022-11-21T04:00:48.545Z,2.95
2022-11-21T04:03:34.011Z,2.97
2022-11-21T04:06:20.930Z,3.28
2022-11-21T04:09:06.302Z,2.30
2022-11-21T04:11:51.676Z,2.40
2022-11-21T04:14:37.296Z,3.08
2022-11-21T04:17:22.539Z,2.53
2022-11-21T04:20:08.955Z,4.15
2022-11-21T04:22:54.281Z,2.97
2022-11-21T04:25:40.502Z,2.97
2022-11-21T04:28:26.064Z,2.65
2022-11-21T04:31:11.647Z,2.00
2022-11-21T04:33:57.450Z,2.58
2022-11-21T04:36:42.896Z,3.05
2022-11-21T04:39:28.297Z,3.58
2022-11-21T04:42:13.726Z,2.85
2022-11-21T04:44:59.216Z,2.40
2022-11-21T04:47:46.986Z,2.90
2022-11-21T04:50:32.803Z,2.90
2022-11-21T04:53:18.221Z,2.75
2022-11-21T04:56:05.716Z,2.50
2022-11-21T04:58:53.068Z,2.85
2022-11-21T05:01:38.614Z,3.58
2022-11-21T05:04:23.941Z,2.50
2022-11-21T05:07:09.554Z,3.53
2022-11-21T05:09:55.012Z,2.65
2022-11-21T05:12:58.688Z,3.95
2022-11-21T05:18:29.384Z,3.05
2022-11-21T05:21:14.922Z,3.17
2022-11-21T05:24:00.461Z,4.90
2022-11-21T05:26:46.015Z,3.38
2022-11-21T05:29:31.710Z,3.05
2022-11-21T05:32:17.279Z,3.08
2022-11-21T05:35:02.862Z,4.25
2022-11-21T05:37:48.377Z,3.30
2022-11-21T05:40:33.635Z,3.30
2022-11-21T05:43:37.855Z,4.18
2022-11-21T05:46:25.741Z,3.28
2022-11-21T05:49:11.390Z,2.70
2022-11-21T05:51:56.610Z,2.78
2022-11-21T05:54:45.964Z,2.72
2022-11-21T05:57:31.515Z,3.78
2022-11-21T06:00:17.617Z,2.92
2022-11-21T06:03:21.262Z,3.35
2022-11-21T06:06:11.938Z,3.03
2022-11-21T06:08:57.129Z,3.55
2022-11-21T06:11:42.611Z,3.00
2022-11-21T06:14:28.312Z,3.50
2022-11-21T06:17:14.044Z,4.45
2022-11-21T06:19:59.425Z,3.15
2022-11-21T06:22:44.969Z,3.60
2022-11-21T06:25:30.389Z,2.95
2022-11-21T06:28:15.944Z,2.70
2022-11-21T06:31:07.069Z,3.28
2022-11-21T06:33:57.766Z,4.10
2022-11-21T06:36:44.735Z,3.75
2022-11-21T06:39:30.264Z,5.28
2022-11-21T06:42:15.798Z,4.68
2022-11-21T06:45:01.231Z,4.00
2022-11-21T06:47:47.023Z,3.03
2022-11-21T06:50:32.534Z,3.60
2022-11-21T06:53:17.961Z,4.13
2022-11-21T06:56:04.075Z,4.20
2022-11-21T06:58:49.310Z,3.80
2022-11-21T07:01:34.528Z,3.25
2022-11-21T07:04:20.048Z,3.55
2022-11-21T07:07:05.827Z,3.20
2022-11-21T07:09:51.239Z,3.88
2022-11-21T07:12:55.451Z,4.10
2022-11-21T07:15:41.063Z,4.00
2022-11-21T07:18:27.021Z,3.78
2022-11-21T07:21:12.652Z,3.67
2022-11-21T07:23:58.168Z,3.17
2022-11-21T07:26:43.801Z,3.13
2022-11-21T07:29:29.794Z,3.03
2022-11-21T07:32:15.775Z,3.30
2022-11-21T07:35:02.121Z,3.13
2022-11-21T07:37:47.896Z,3.30
2022-11-21T07:40:34.773Z,3.25
2022-11-21T07:43:20.285Z,3.17
2022-11-21T07:46:05.922Z,2.65
2022-11-21T07:49:19.425Z,4.05
2022-11-21T07:52:04.764Z,3.42
2022-11-21T07:54:50.374Z,3.08
2022-11-21T07:57:36.035Z,2.70
2022-11-21T08:00:21.755Z,3.78
2022-11-21T08:03:07.224Z,2.60
2022-11-21T08:05:52.536Z,2.47
2022-11-21T08:08:38.144Z,3.47
2022-11-21T08:11:23.834Z,2.50
2022-11-21T08:14:09.575Z,2.15
2022-11-21T08:16:56.094Z,4.68
2022-11-21T08:19:41.698Z,4.57
2022-11-21T08:22:27.453Z,2.03
2022-11-21T08:25:12.700Z,2.50
2022-11-21T08:27:58.917Z,2.88
2022-11-21T08:30:44.732Z,3.92
2022-11-21T08:33:30.187Z,2.40
2022-11-21T08:36:15.521Z,2.78
2022-11-21T08:39:02.160Z,3.30
2022-11-21T08:42:05.765Z,3.08
2022-11-21T08:44:51.344Z,3.08
2022-11-21T08:47:36.832Z,3.03
2022-11-21T08:50:23.777Z,2.90
2022-11-21T08:53:09.401Z,3.78
2022-11-21T08:55:55.031Z,2.42
2022-11-21T08:58:40.827Z,3.75
2022-11-21T09:01:26.433Z,2.40
2022-11-21T09:04:12.188Z,2.60
2022-11-21T09:06:57.642Z,2.92
2022-11-21T09:09:43.309Z,3.13
2022-11-21T09:12:28.911Z,5.10
2022-11-21T09:15:33.104Z,3.55
2022-11-21T09:18:18.681Z,3.15
2022-11-21T09:21:04.341Z,2.67
2022-11-21T09:23:50.445Z,2.75
2022-11-21T09:26:36.156Z,2.72
2022-11-21T09:29:21.382Z,2.33
2022-11-21T09:32:07.009Z,3.20
2022-11-21T09:34:52.650Z,2.72
2022-11-21T09:37:38.657Z,2.13
2022-11-21T09:40:25.451Z,2.38
2022-11-21T09:43:25.799Z,4.00
2022-11-21T09:46:23.434Z,3.58
2022-11-21T09:49:13.030Z,2.65
2022-11-21T09:51:59.626Z,4.57
2022-11-21T09:55:02.620Z,3.42
2022-11-21T09:57:49.865Z,3.08
2022-11-21T10:00:35.460Z,2.85
2022-11-21T10:03:24.413Z,4.78
2022-11-21T10:06:29.242Z,3.97
2022-11-21T10:09:39.158Z,3.10
2022-11-21T10:12:47.366Z,2.92
2022-11-21T10:16:07.988Z,2.75
2022-11-21T10:19:41.852Z,3.35
2022-11-21T10:22:38.673Z,4.10
2022-11-21T10:25:31.243Z,3.20
2022-11-21T10:28:39.943Z,3.60
2022-11-21T10:31:30.674Z,4.53
2022-11-21T10:34:37.843Z,4.22
2022-11-21T10:37:35.048Z,4.30
2022-11-21T10:40:39.564Z,3.88
2022-11-21T10:44:24.387Z,5.15
2022-11-21T10:50:04.031Z,3.75
2022-11-21T10:52:53.705Z,4.18
2022-11-21T10:56:04.475Z,3.05
2022-11-21T10:59:11.727Z,3.88
2022-11-21T11:01:59.111Z,4.05
2022-11-21T11:04:50.825Z,4.18
2022-11-21T11:07:37.859Z,4.90
2022-11-21T11:10:27.466Z,3.05
2022-11-21T11:13:50.894Z,4.55
2022-11-21T11:16:41.448Z,3.40
2022-11-21T11:19:35.317Z,3.10
2022-11-21T11:22:29.236Z,3.30
2022-11-21T11:25:15.963Z,3.05
2022-11-21T11:28:08.021Z,3.97
2022-11-21T11:30:55.090Z,5.55
2022-11-21T11:33:49.759Z,4.68
2022-11-21T11:36:47.324Z,3.70
2022-11-21T11:39:35.660Z,4.13
2022-11-21T11:43:10.935Z,4.55
2022-11-21T11:46:33.305Z,3.83
2022-11-21T11:49:55.950Z,3.80
2022-11-21T11:52:53.093Z,4.50
2022-11-21T11:55:47.257Z,4.28
2022-11-21T11:58:45.926Z,4.53
2022-11-21T12:01:31.277Z,5.18
2022-11-21T12:04:22.147Z,3.67
2022-11-21T12:11:09.389Z,6.32
2022-11-21T12:13:57.772Z,5.82
2022-11-21T12:16:43.457Z,3.72
2022-11-21T12:19:29.488Z,3.90
2022-11-21T12:22:14.939Z,5.00
2022-11-21T12:25:00.410Z,4.88
2022-11-21T12:27:49.822Z,4.97
2022-11-21T12:31:04.774Z,4.25
2022-11-21T12:34:12.584Z,3.17
2022-11-21T12:37:26.590Z,5.93
2022-11-21T12:40:40.403Z,5.25
2022-11-21T12:46:41.805Z,3.58
2022-11-21T12:49:56.479Z,3.15
2022-11-21T12:53:07.582Z,3.15
2022-11-21T12:55:58.584Z,3.58
2022-11-21T12:58:48.712Z,4.40
2022-11-21T13:01:58.643Z,3.90
2022-11-21T13:04:47.335Z,2.83
2022-11-21T13:07:33.506Z,2.42
2022-11-21T13:10:18.969Z,2.60
2022-11-21T13:13:27.223Z,2.60
2022-11-21T13:16:36.885Z,3.03
2022-11-21T13:19:51.708Z,2.30
2022-11-21T13:22:37.363Z,2.83
2022-11-21T13:25:32.464Z,2.25
2022-11-21T13:28:17.965Z,1.60
2022-11-21T13:31:24.105Z,1.95
2022-11-21T13:34:45.402Z,2.03
2022-11-21T13:37:49.796Z,1.17
2022-11-21T13:40:38.533Z,1.80
2022-11-21T13:43:33.096Z,1.10
2022-11-21T13:46:58.363Z,1.25
2022-11-21T13:49:48.890Z,1.58
2022-11-21T13:52:43.787Z,1.42
2022-11-21T13:55:49.117Z,1.40
2022-11-21T13:58:55.061Z,1.20
2022-11-21T14:01:59.688Z,1.27
2022-11-21T14:04:47.048Z,1.55
2022-11-21T14:07:35.209Z,1.45
2022-11-21T14:10:35.991Z,1.38
2022-11-21T14:13:28.374Z,1.52
2022-11-21T14:16:35.184Z,2.28
2022-11-21T14:19:21.360Z,1.90
2022-11-21T14:22:35.009Z,2.13
2022-11-21T14:25:35.425Z,1.13
2022-11-21T14:28:26.863Z,1.83
2022-11-21T14:31:13.402Z,1.38
2022-11-21T14:33:59.221Z,1.45
2022-11-21T14:36:45.177Z,1.30
2022-11-21T14:39:44.130Z,1.92
2022-11-21T14:42:37.433Z,1.30
2022-11-21T14:45:24.289Z,3.55
2022-11-21T14:48:12.985Z,2.22
2022-11-21T14:50:59.865Z,1.48
2022-11-21T14:53:47.609Z,1.17
2022-11-21T14:56:34.424Z,1.40
2022-11-21T14:59:26.587Z,1.10
2022-11-21T15:02:14.483Z,1.30
2022-11-21T15:05:07.465Z,1.27
2022-11-21T15:08:01.225Z,1.15
2022-11-21T15:11:00.587Z,0.60
2022-11-21T15:14:14.393Z,1.20
2022-11-21T15:16:57.894Z,1.00
2022-11-21T15:19:44.976Z,1.13
2022-11-21T15:22:37.653Z,2.10
2022-11-21T15:25:29.077Z,1.00
2022-11-21T15:28:19.354Z,1.02
2022-11-21T15:31:21.495Z,0.95
2022-11-21T15:34:34.212Z,1.08
2022-11-21T15:37:18.243Z,1.30
2022-11-21T15:40:04.014Z,1.30
2022-11-21T15:42:50.550Z,1.23
2022-11-21T15:45:36.440Z,1.40
2022-11-21T15:48:23.709Z,1.33
2022-11-21T15:51:13.245Z,1.40
2022-11-21T15:53:58.425Z,1.30
2022-11-21T15:56:44.542Z,1.15
2022-11-21T15:59:30.501Z,1.10
2022-11-21T16:02:16.447Z,1.50
2022-11-21T16:05:02.028Z,1.60
2022-11-21T16:07:48.445Z,1.70
2022-11-21T16:10:36.131Z,1.40
2022-11-21T16:13:22.018Z,1.55
2022-11-21T16:16:10.310Z,1.73
2022-11-21T16:18:57.465Z,1.65
2022-11-21T16:21:43.537Z,1.90
2022-11-21T16:24:29.761Z,1.80
2022-11-21T16:27:15.373Z,2.08
2022-11-21T16:30:01.484Z,2.78
2022-11-21T16:32:48.286Z,2.38
2022-11-21T16:35:37.966Z,1.80
2022-11-21T16:38:25.793Z,2.33
2022-11-21T16:41:13.342Z,1.77
2022-11-21T16:43:58.980Z,2.10
2022-11-21T16:46:48.162Z,2.17
2022-11-21T16:49:34.235Z,1.60
2022-11-21T16:52:20.104Z,1.15
2022-11-21T16:55:06.819Z,1.73
2022-11-21T16:57:55.997Z,1.00
2022-11-21T17:00:43.449Z,0.75
2022-11-21T17:03:28.750Z,0.88
2022-11-21T17:06:21.856Z,1.08
2022-11-21T17:09:07.580Z,1.23
2022-11-21T17:11:56.430Z,1.00
2022-11-21T17:14:42.340Z,1.27
2022-11-21T17:17:27.961Z,0.80
2022-11-21T17:20:13.194Z,0.70
2022-11-21T17:22:58.774Z,0.63
2022-11-21T17:25:44.319Z,0.55
2022-11-21T17:28:30.268Z,0.40
2022-11-21T17:31:16.126Z,0.60
2022-11-21T17:34:02.406Z,0.70
2022-11-21T17:36:47.915Z,0.70
2022-11-21T17:39:33.686Z,0.82
2022-11-21T17:42:19.527Z,1.05
2022-11-21T17:45:05.901Z,0.63
2022-11-21T17:47:51.564Z,0.73
2022-11-21T17:50:37.838Z,0.70
2022-11-21T17:53:23.614Z,0.98
2022-11-21T17:56:17.696Z,0.82
2022-11-21T17:59:04.446Z,1.40
2022-11-21T18:01:50.038Z,1.23
2022-11-21T18:04:38.928Z,1.23
2022-11-21T18:07:24.873Z,1.40
2022-11-21T18:10:40.695Z,1.40
2022-11-21T18:13:16.050Z,1.02
2022-11-21T18:16:07.090Z,1.73
2022-11-21T18:18:52.820Z,1.27
2022-11-21T18:21:38.480Z,2.45
2022-11-21T18:24:23.923Z,2.90
2022-11-21T18:27:09.699Z,1.35
2022-11-21T18:29:55.067Z,1.33
2022-11-21T18:32:40.769Z,1.90
2022-11-21T18:35:27.221Z,1.67
2022-11-21T18:38:40.302Z,2.00
2022-11-21T18:41:23.720Z,1.90
2022-11-21T18:44:10.235Z,2.25
2022-11-21T18:46:55.733Z,1.38
2022-11-21T18:49:41.207Z,2.03
2022-11-21T18:52:27.341Z,2.53
2022-11-21T18:55:12.631Z,1.77
2022-11-21T18:57:58.099Z,2.25
2022-11-21T19:00:43.940Z,3.15
2022-11-21T19:03:29.277Z,1.70
2022-11-21T19:06:17.824Z,2.00
2022-11-21T19:09:04.371Z,2.92
2022-11-21T19:11:49.958Z,2.15
2022-11-21T19:14:35.299Z,2.83
2022-11-21T19:17:21.065Z,3.47
2022-11-21T19:20:06.804Z,2.20
2022-11-21T19:22:53.397Z,3.70
2022-11-21T19:25:38.913Z,1.83
2022-11-21T19:28:24.643Z,3.60
2022-11-21T19:31:12.322Z,2.47
2022-11-21T19:33:58.343Z,3.30
2022-11-21T19:36:44.832Z,3.03
2022-11-21T19:39:30.697Z,2.38
2022-11-21T19:42:16.466Z,1.77
2022-11-21T19:45:01.952Z,3.25
2022-11-21T19:47:47.831Z,3.28
2022-11-21T19:50:33.343Z,2.30
2022-11-21T19:53:18.959Z,3.35
2022-11-21T19:56:18.649Z,2.60
2022-11-21T19:59:05.017Z,2.65
2022-11-21T20:01:52.948Z,3.40
2022-11-21T20:04:38.699Z,2.90
2022-11-21T20:07:24.394Z,3.20
2022-11-21T20:10:10.002Z,3.38
2022-11-21T20:12:55.533Z,2.95
2022-11-21T20:15:40.982Z,3.70
2022-11-21T20:18:27.005Z,3.47
2022-11-21T20:21:13.301Z,3.38
2022-11-21T20:23:58.976Z,2.35
2022-11-21T20:26:45.045Z,2.58
2022-11-21T20:29:30.607Z,3.58
2022-11-21T20:32:16.522Z,3.08
2022-11-21T20:35:01.917Z,2.83
2022-11-21T20:37:47.507Z,2.50
2022-11-21T20:40:33.138Z,2.30
2022-11-21T20:43:18.646Z,2.63
2022-11-21T20:46:11.831Z,2.53
2022-11-21T20:49:00.994Z,2.95
2022-11-21T20:54:53.012Z,3.40
2022-11-21T20:57:39.002Z,2.13
2022-11-21T21:00:24.179Z,2.38
2022-11-21T21:03:13.922Z,2.65
2022-11-21T21:06:06.798Z,2.20
2022-11-21T21:11:51.664Z,1.75
2022-11-21T21:14:38.089Z,3.10
2022-11-21T21:17:23.837Z,1.88
2022-11-21T21:20:09.741Z,2.60
2022-11-21T21:22:56.319Z,2.47
2022-11-21T21:25:45.545Z,2.40
2022-11-21T21:28:32.063Z,1.58
2022-11-21T21:31:19.364Z,3.28
2022-11-21T21:34:04.721Z,2.38
2022-11-21T21:36:51.265Z,3.17
2022-11-21T21:39:36.623Z,2.38
2022-11-21T21:42:29.724Z,2.97
2022-11-21T21:45:15.554Z,3.05
2022-11-21T21:48:01.318Z,2.05
2022-11-21T21:50:46.880Z,1.80
2022-11-21T21:53:36.111Z,1.88
2022-11-21T21:56:24.668Z,1.23
2022-11-21T21:59:10.119Z,1.70
2022-11-21T22:01:55.616Z,1.95
2022-11-21T22:04:41.175Z,2.10
2022-11-21T22:07:27.019Z,1.70
2022-11-21T22:10:12.626Z,2.38
2022-11-21T22:12:58.174Z,1.75
2022-11-21T22:15:44.608Z,2.60
2022-11-21T22:18:32.170Z,2.17
2022-11-21T22:21:27.386Z,2.58
2022-11-21T22:24:25.872Z,1.55
2022-11-21T22:27:11.523Z,3.00
2022-11-21T22:29:57.137Z,2.28
2022-11-21T22:32:42.654Z,3.60
2022-11-21T22:35:28.214Z,2.05
2022-11-21T22:38:15.052Z,2.67
2022-11-21T22:41:05.097Z,2.00
2022-11-21T22:43:57.821Z,2.30
2022-11-21T22:46:43.608Z,1.67
2022-11-21T22:49:29.323Z,2.28
2022-11-21T22:52:14.854Z,1.40
2022-11-21T22:55:00.437Z,1.55
2022-11-21T22:57:45.859Z,2.92
2022-11-21T23:00:31.371Z,2.58
2022-11-21T23:03:16.675Z,1.85
2022-11-21T23:06:10.314Z,1.48
2022-11-21T23:08:57.025Z,2.25
2022-11-21T23:11:42.197Z,1.80
2022-11-21T23:14:27.947Z,2.35
2022-11-21T23:17:13.839Z,1.98
2022-11-21T23:19:59.180Z,1.75
2022-11-21T23:22:45.304Z,2.65
2022-11-21T23:25:30.455Z,1.60
2022-11-21T23:28:16.136Z,2.20
2022-11-21T23:31:01.955Z,1.27
2022-11-21T23:33:47.274Z,1.75
2022-11-21T23:36:32.935Z,1.88
2022-11-21T23:39:21.846Z,1.42
2022-11-21T23:42:07.615Z,1.60
2022-11-21T23:44:53.285Z,1.35
2022-11-21T23:47:38.992Z,1.27
2022-11-21T23:50:24.858Z,1.67
2022-11-21T23:53:10.506Z,2.58
2022-11-21T23:55:56.175Z,1.77
2022-11-21T23:58:41.489Z,2.03
